sensor_id;sensor_type;location;lat;lon;timestamp;pressure;altitude;pressure_sealevel;temperature;humidity
47636;BME280;33364;50.766;15.338;2024-02-14T00:02:11;95335.94;;;0.07;91.33
47636;BME280;33364;50.766;15.338;2024-02-14T00:04:37;95329.59;;;0.03;90.93
47636;BME280;33364;50.766;15.338;2024-02-14T00:07:04;95328.28;;;-0.07;91.14
47636;BME280;33364;50.766;15.338;2024-02-14T00:09:31;95327.50;;;-0.14;90.70
47636;BME280;33364;50.766;15.338;2024-02-14T00:11:56;95334.66;;;-0.09;90.95
47636;BME280;33364;50.766;15.338;2024-02-14T00:14:22;95325.03;;;-0.02;91.66
47636;BME280;33364;50.766;15.338;2024-02-14T00:16:48;95326.47;;;-0.06;90.71
47636;BME280;33364;50.766;15.338;2024-02-14T00:19:14;95325.34;;;-0.17;90.30
47636;BME280;33364;50.766;15.338;2024-02-14T00:21:40;95328.84;;;-0.05;91.06
47636;BME280;33364;50.766;15.338;2024-02-14T00:24:06;95325.09;;;-0.09;90.40
47636;BME280;33364;50.766;15.338;2024-02-14T00:26:31;95329.28;;;-0.08;90.80
47636;BME280;33364;50.766;15.338;2024-02-14T00:28:57;95330.44;;;-0.04;91.26
47636;BME280;33364;50.766;15.338;2024-02-14T00:31:23;95326.91;;;-0.16;89.99
47636;BME280;33364;50.766;15.338;2024-02-14T00:33:49;95327.94;;;-0.17;90.22
47636;BME280;33364;50.766;15.338;2024-02-14T00:36:14;95335.13;;;-0.19;90.55
47636;BME280;33364;50.766;15.338;2024-02-14T00:38:40;95330.88;;;-0.07;91.42
47636;BME280;33364;50.766;15.338;2024-02-14T00:41:06;95338.25;;;-0.10;91.34
47636;BME280;33364;50.766;15.338;2024-02-14T00:43:31;95342.09;;;-0.13;90.96
47636;BME280;33364;50.766;15.338;2024-02-14T00:45:57;95345.84;;;-0.09;90.80
47636;BME280;33364;50.766;15.338;2024-02-14T00:48:23;95352.47;;;-0.13;90.71
47636;BME280;33364;50.766;15.338;2024-02-14T00:50:49;95349.06;;;-0.13;90.56
47636;BME280;33364;50.766;15.338;2024-02-14T00:53:15;95344.16;;;-0.21;90.32
47636;BME280;33364;50.766;15.338;2024-02-14T00:55:41;95349.84;;;-0.44;89.94
47636;BME280;33364;50.766;15.338;2024-02-14T00:58:07;95338.31;;;-0.48;90.33
47636;BME280;33364;50.766;15.338;2024-02-14T01:00:32;95340.28;;;-0.50;90.91
47636;BME280;33364;50.766;15.338;2024-02-14T01:02:58;95339.50;;;-0.51;92.08
47636;BME280;33364;50.766;15.338;2024-02-14T01:05:24;95334.94;;;-0.55;91.55
47636;BME280;33364;50.766;15.338;2024-02-14T01:07:50;95332.34;;;-0.55;91.52
47636;BME280;33364;50.766;15.338;2024-02-14T01:10:16;95333.59;;;-0.64;91.29
47636;BME280;33364;50.766;15.338;2024-02-14T01:12:44;95328.22;;;-0.69;91.54
47636;BME280;33364;50.766;15.338;2024-02-14T01:15:09;95317.59;;;-0.61;92.26
47636;BME280;33364;50.766;15.338;2024-02-14T01:17:35;95327.94;;;-0.55;92.32
47636;BME280;33364;50.766;15.338;2024-02-14T01:20:04;95319.88;;;-0.40;92.58
47636;BME280;33364;50.766;15.338;2024-02-14T01:22:31;95321.81;;;-0.29;92.55
47636;BME280;33364;50.766;15.338;2024-02-14T01:24:57;95329.63;;;-0.35;91.66
47636;BME280;33364;50.766;15.338;2024-02-14T01:27:24;95327.56;;;-0.58;90.71
47636;BME280;33364;50.766;15.338;2024-02-14T01:29:50;95328.13;;;-0.50;91.81
47636;BME280;33364;50.766;15.338;2024-02-14T01:32:16;95317.72;;;-0.43;92.19
47636;BME280;33364;50.766;15.338;2024-02-14T01:34:42;95319.88;;;-0.40;91.68
47636;BME280;33364;50.766;15.338;2024-02-14T01:37:08;95324.28;;;-0.40;91.75
47636;BME280;33364;50.766;15.338;2024-02-14T01:39:35;95329.09;;;-0.44;91.55
47636;BME280;33364;50.766;15.338;2024-02-14T01:42:01;95325.84;;;-0.33;92.02
47636;BME280;33364;50.766;15.338;2024-02-14T01:44:33;95329.09;;;-0.44;91.91
47636;BME280;33364;50.766;15.338;2024-02-14T01:47:02;95329.84;;;-0.37;91.98
47636;BME280;33364;50.766;15.338;2024-02-14T01:49:28;95331.41;;;-0.29;92.22
47636;BME280;33364;50.766;15.338;2024-02-14T01:51:59;95332.97;;;-0.22;91.86
47636;BME280;33364;50.766;15.338;2024-02-14T01:54:27;95333.97;;;-0.23;91.58
47636;BME280;33364;50.766;15.338;2024-02-14T01:56:54;95331.38;;;-0.23;91.53
47636;BME280;33364;50.766;15.338;2024-02-14T01:59:23;95332.72;;;-0.20;91.93
47636;BME280;33364;50.766;15.338;2024-02-14T02:01:49;95330.09;;;-0.14;91.99
47636;BME280;33364;50.766;15.338;2024-02-14T02:04:17;95314.34;;;-0.12;91.64
47636;BME280;33364;50.766;15.338;2024-02-14T02:06:44;95316.19;;;-0.26;91.14
47636;BME280;33364;50.766;15.338;2024-02-14T02:09:10;95327.63;;;-0.33;90.87
47636;BME280;33364;50.766;15.338;2024-02-14T02:11:52;95317.09;;;-0.38;91.42
47636;BME280;33364;50.766;15.338;2024-02-14T02:14:21;95315.47;;;-0.33;91.99
47636;BME280;33364;50.766;15.338;2024-02-14T02:16:48;95312.81;;;-0.26;92.08
47636;BME280;33364;50.766;15.338;2024-02-14T02:19:14;95310.94;;;-0.13;92.92
47636;BME280;33364;50.766;15.338;2024-02-14T02:21:42;95306.50;;;-0.06;92.83
47636;BME280;33364;50.766;15.338;2024-02-14T02:24:11;95314.84;;;-0.04;92.27
47636;BME280;33364;50.766;15.338;2024-02-14T02:26:37;95318.56;;;-0.18;91.68
47636;BME280;33364;50.766;15.338;2024-02-14T02:29:03;95317.72;;;-0.12;92.21
47636;BME280;33364;50.766;15.338;2024-02-14T02:31:32;95305.16;;;-0.15;92.80
47636;BME280;33364;50.766;15.338;2024-02-14T02:33:57;95313.69;;;-0.08;93.14
47636;BME280;33364;50.766;15.338;2024-02-14T02:36:24;95315.84;;;-0.05;92.87
47636;BME280;33364;50.766;15.338;2024-02-14T02:38:50;95310.63;;;0.02;92.87
47636;BME280;33364;50.766;15.338;2024-02-14T02:41:16;95311.78;;;0.06;92.57
47636;BME280;33364;50.766;15.338;2024-02-14T02:43:42;95315.63;;;0.04;92.07
47636;BME280;33364;50.766;15.338;2024-02-14T02:46:10;95300.25;;;0.02;92.24
47636;BME280;33364;50.766;15.338;2024-02-14T02:48:36;95298.28;;;-0.03;92.07
47636;BME280;33364;50.766;15.338;2024-02-14T02:51:02;95307.75;;;-0.15;91.77
47636;BME280;33364;50.766;15.338;2024-02-14T02:53:27;95309.81;;;-0.23;91.66
47636;BME280;33364;50.766;15.338;2024-02-14T02:55:53;95314.81;;;-0.22;92.35
47636;BME280;33364;50.766;15.338;2024-02-14T02:58:20;95323.19;;;-0.26;92.27
47636;BME280;33364;50.766;15.338;2024-02-14T03:00:48;95311.88;;;-0.32;92.19
47636;BME280;33364;50.766;15.338;2024-02-14T03:03:16;95315.47;;;-0.33;92.45
47636;BME280;33364;50.766;15.338;2024-02-14T03:05:42;95309.97;;;-0.18;93.47
47636;BME280;33364;50.766;15.338;2024-02-14T03:08:12;95310.19;;;-0.20;92.94
47636;BME280;33364;50.766;15.338;2024-02-14T03:10:41;95316.16;;;-0.19;93.16
47636;BME280;33364;50.766;15.338;2024-02-14T03:13:07;95318.56;;;-0.18;92.42
47636;BME280;33364;50.766;15.338;2024-02-14T03:15:39;95319.34;;;-0.17;92.11
47636;BME280;33364;50.766;15.338;2024-02-14T03:18:05;95329.34;;;-0.21;91.85
47636;BME280;33364;50.766;15.338;2024-02-14T03:20:38;95338.56;;;-0.25;91.49
47636;BME280;33364;50.766;15.338;2024-02-14T03:23:03;95336.16;;;-0.26;91.69
47636;BME280;33364;50.766;15.338;2024-02-14T03:25:30;95338.31;;;-0.17;91.86
47636;BME280;33364;50.766;15.338;2024-02-14T03:27:55;95341.31;;;-0.20;92.00
47636;BME280;33364;50.766;15.338;2024-02-14T03:30:22;95340.28;;;-0.12;92.35
47636;BME280;33364;50.766;15.338;2024-02-14T03:32:49;95340.81;;;-0.04;92.60
47636;BME280;33364;50.766;15.338;2024-02-14T03:35:15;95346.50;;;-0.20;91.52
47636;BME280;33364;50.766;15.338;2024-02-14T03:37:42;95347.69;;;-0.16;92.04
47636;BME280;33364;50.766;15.338;2024-02-14T03:40:08;95346.66;;;-0.08;92.37
47636;BME280;33364;50.766;15.338;2024-02-14T03:42:35;95340.91;;;-0.17;92.09
47636;BME280;33364;50.766;15.338;2024-02-14T03:45:01;95336.13;;;-0.20;92.42
47636;BME280;33364;50.766;15.338;2024-02-14T03:47:31;95329.78;;;-0.24;92.58
47636;BME280;33364;50.766;15.338;2024-02-14T03:50:01;95335.41;;;-0.27;92.39
47636;BME280;33364;50.766;15.338;2024-02-14T03:52:30;95337.81;;;-0.32;92.58
47636;BME280;33364;50.766;15.338;2024-02-14T03:54:58;95340.00;;;-0.35;92.98
47636;BME280;33364;50.766;15.338;2024-02-14T03:57:25;95340.16;;;-0.24;93.46
47636;BME280;33364;50.766;15.338;2024-02-14T03:59:55;95340.75;;;-0.22;93.34
47636;BME280;33364;50.766;15.338;2024-02-14T04:02:22;95333.97;;;-0.23;93.34
47636;BME280;33364;50.766;15.338;2024-02-14T04:04:49;95347.69;;;-0.16;93.84
47636;BME280;33364;50.766;15.338;2024-02-14T04:07:15;95338.22;;;-0.04;94.01
47636;BME280;33364;50.766;15.338;2024-02-14T04:09:41;95342.44;;;-0.09;93.50
47636;BME280;33364;50.766;15.338;2024-02-14T04:12:06;95339.81;;;-0.03;93.63
47636;BME280;33364;50.766;15.338;2024-02-14T04:14:32;95330.59;;;0.02;93.60
47636;BME280;33364;50.766;15.338;2024-02-14T04:16:58;95331.00;;;0.05;93.41
47636;BME280;33364;50.766;15.338;2024-02-14T04:19:24;95322.50;;;0.16;93.84
47636;BME280;33364;50.766;15.338;2024-02-14T04:21:49;95326.13;;;0.15;93.60
47636;BME280;33364;50.766;15.338;2024-02-14T04:24:16;95319.97;;;0.10;93.32
47636;BME280;33364;50.766;15.338;2024-02-14T04:26:41;95312.75;;;0.12;93.53
47636;BME280;33364;50.766;15.338;2024-02-14T04:29:10;95317.94;;;0.12;93.41
47636;BME280;33364;50.766;15.338;2024-02-14T04:31:36;95305.19;;;0.10;93.82
47636;BME280;33364;50.766;15.338;2024-02-14T04:34:02;95308.84;;;0.03;93.39
47636;BME280;33364;50.766;15.338;2024-02-14T04:36:27;95310.06;;;0.00;93.35
47636;BME280;33364;50.766;15.338;2024-02-14T04:38:57;95309.66;;;-0.04;93.53
47636;BME280;33364;50.766;15.338;2024-02-14T04:41:22;95313.88;;;-0.03;93.60
47636;BME280;33364;50.766;15.338;2024-02-14T04:43:49;95316.47;;;-0.03;93.48
47636;BME280;33364;50.766;15.338;2024-02-14T04:46:14;95322.44;;;-0.02;93.55
47636;BME280;33364;50.766;15.338;2024-02-14T04:48:40;95324.84;;;-0.01;93.32
47636;BME280;33364;50.766;15.338;2024-02-14T04:51:06;95316.97;;;-0.19;92.77
47636;BME280;33364;50.766;15.338;2024-02-14T04:53:31;95314.56;;;-0.20;93.05
47636;BME280;33364;50.766;15.338;2024-02-14T04:55:57;95303.78;;;-0.17;93.34
47636;BME280;33364;50.766;15.338;2024-02-14T04:58:23;95308.59;;;-0.21;93.13
47636;BME280;33364;50.766;15.338;2024-02-14T05:00:49;95314.03;;;-0.29;92.65
47636;BME280;33364;50.766;15.338;2024-02-14T05:03:15;95312.25;;;-0.28;93.24
47636;BME280;33364;50.766;15.338;2024-02-14T05:05:41;95303.66;;;-0.29;93.13
47636;BME280;33364;50.766;15.338;2024-02-14T05:08:07;95304.53;;;-0.42;92.60
47636;BME280;33364;50.766;15.338;2024-02-14T05:10:33;95309.34;;;-0.45;92.77
47636;BME280;33364;50.766;15.338;2024-02-14T05:12:59;95307.94;;;-0.48;92.87
47636;BME280;33364;50.766;15.338;2024-02-14T05:15:24;95305.13;;;-0.39;93.68
47636;BME280;33364;50.766;15.338;2024-02-14T05:17:52;95304.28;;;-0.33;93.84
47636;BME280;33364;50.766;15.338;2024-02-14T05:20:17;95301.53;;;-0.38;93.55
47636;BME280;33364;50.766;15.338;2024-02-14T05:22:43;95300.28;;;-0.36;93.62
47636;BME280;33364;50.766;15.338;2024-02-14T05:25:09;95293.78;;;-0.45;93.26
47636;BME280;33364;50.766;15.338;2024-02-14T05:27:36;95297.69;;;-0.36;93.87
47636;BME280;33364;50.766;15.338;2024-02-14T05:30:03;95302.72;;;-0.41;93.93
47636;BME280;33364;50.766;15.338;2024-02-14T05:32:32;95304.69;;;-0.36;93.55
47636;BME280;33364;50.766;15.338;2024-02-14T05:34:58;95301.50;;;-0.32;93.82
47636;BME280;33364;50.766;15.338;2024-02-14T05:37:24;95295.19;;;-0.49;93.21
47636;BME280;33364;50.766;15.338;2024-02-14T05:39:55;95294.78;;;-0.46;93.54
47636;BME280;33364;50.766;15.338;2024-02-14T05:42:21;95299.34;;;-0.42;93.51
47636;BME280;33364;50.766;15.338;2024-02-14T05:44:47;95297.38;;;-0.46;93.21
47636;BME280;33364;50.766;15.338;2024-02-14T05:47:13;95298.38;;;-0.47;93.28
47636;BME280;33364;50.766;15.338;2024-02-14T05:49:40;95295.84;;;-0.54;92.94
47636;BME280;33364;50.766;15.338;2024-02-14T05:52:07;95316.81;;;-0.62;92.96
47636;BME280;33364;50.766;15.338;2024-02-14T05:54:33;95316.41;;;-0.59;93.35
47636;BME280;33364;50.766;15.338;2024-02-14T05:57:00;95317.38;;;-0.53;93.73
47636;BME280;33364;50.766;15.338;2024-02-14T05:59:30;95313.13;;;-0.48;94.18
47636;BME280;33364;50.766;15.338;2024-02-14T06:01:56;95323.91;;;-0.44;93.56
47636;BME280;33364;50.766;15.338;2024-02-14T06:04:22;95321.13;;;-0.43;93.58
47636;BME280;33364;50.766;15.338;2024-02-14T06:06:48;95325.06;;;-0.40;93.61
47636;BME280;33364;50.766;15.338;2024-02-14T06:09:13;95326.25;;;-0.36;93.37
47636;BME280;33364;50.766;15.338;2024-02-14T06:11:39;95322.25;;;-0.32;93.16
47636;BME280;33364;50.766;15.338;2024-02-14T06:14:06;95334.38;;;-0.26;93.08
47636;BME280;33364;50.766;15.338;2024-02-14T06:16:33;95334.63;;;-0.34;92.83
47636;BME280;33364;50.766;15.338;2024-02-14T06:18:59;95343.44;;;-0.42;92.52
47636;BME280;33364;50.766;15.338;2024-02-14T06:21:25;95343.88;;;-0.51;92.88
47636;BME280;33364;50.766;15.338;2024-02-14T06:23:52;95336.53;;;-0.54;92.97
47636;BME280;33364;50.766;15.338;2024-02-14T06:26:18;95342.28;;;-0.52;93.57
47636;BME280;33364;50.766;15.338;2024-02-14T06:28:44;95344.25;;;-0.48;93.69
47636;BME280;33364;50.766;15.338;2024-02-14T06:31:10;95337.84;;;-0.38;93.87
47636;BME280;33364;50.766;15.338;2024-02-14T06:33:36;95342.38;;;-0.27;94.13
47636;BME280;33364;50.766;15.338;2024-02-14T06:36:02;95339.72;;;-0.21;94.08
47636;BME280;33364;50.766;15.338;2024-02-14T06:38:28;95346.91;;;-0.16;93.70
47636;BME280;33364;50.766;15.338;2024-02-14T06:40:54;95342.09;;;-0.13;93.58
47636;BME280;33364;50.766;15.338;2024-02-14T06:43:20;95339.88;;;-0.16;93.40
47636;BME280;33364;50.766;15.338;2024-02-14T06:45:45;95352.88;;;-0.16;93.27
47636;BME280;33364;50.766;15.338;2024-02-14T06:48:11;95351.41;;;-0.05;93.67
47636;BME280;33364;50.766;15.338;2024-02-14T06:50:37;95350.03;;;-0.08;93.39
47636;BME280;33364;50.766;15.338;2024-02-14T06:53:03;95348.03;;;-0.06;93.36
47636;BME280;33364;50.766;15.338;2024-02-14T06:55:29;95348.63;;;-0.10;93.05
47636;BME280;33364;50.766;15.338;2024-02-14T06:58:00;95343.09;;;-0.14;93.11
47636;BME280;33364;50.766;15.338;2024-02-14T07:00:27;95341.28;;;-0.13;93.25
47636;BME280;33364;50.766;15.338;2024-02-14T07:02:53;95352.03;;;-0.10;93.51
47636;BME280;33364;50.766;15.338;2024-02-14T07:05:19;95350.81;;;-0.01;93.88
47636;BME280;33364;50.766;15.338;2024-02-14T07:07:45;95347.13;;;0.07;94.10
47636;BME280;33364;50.766;15.338;2024-02-14T07:10:10;95351.84;;;0.17;94.18
47636;BME280;33364;50.766;15.338;2024-02-14T07:12:36;95349.09;;;0.12;93.61
47636;BME280;33364;50.766;15.338;2024-02-14T07:15:03;95342.88;;;0.19;94.04
47636;BME280;33364;50.766;15.338;2024-02-14T07:17:33;95345.25;;;0.21;93.65
47636;BME280;33364;50.766;15.338;2024-02-14T07:19:59;95354.22;;;0.25;93.71
47636;BME280;33364;50.766;15.338;2024-02-14T07:22:25;95347.16;;;0.32;93.62
47636;BME280;33364;50.766;15.338;2024-02-14T07:24:50;95337.00;;;0.30;93.54
47636;BME280;33364;50.766;15.338;2024-02-14T07:27:16;95338.47;;;0.45;93.84
47636;BME280;33364;50.766;15.338;2024-02-14T07:29:42;95337.03;;;0.49;93.86
47636;BME280;33364;50.766;15.338;2024-02-14T07:32:08;95346.53;;;0.61;93.91
47636;BME280;33364;50.766;15.338;2024-02-14T07:34:34;95343.47;;;0.64;93.82
47636;BME280;33364;50.766;15.338;2024-02-14T07:37:00;95335.84;;;0.69;93.67
47636;BME280;33364;50.766;15.338;2024-02-14T07:39:25;95344.88;;;0.67;93.29
47636;BME280;33364;50.766;15.338;2024-02-14T07:41:51;95346.66;;;0.66;93.74
47636;BME280;33364;50.766;15.338;2024-02-14T07:44:17;95348.38;;;0.79;93.91
47636;BME280;33364;50.766;15.338;2024-02-14T07:46:43;95341.56;;;0.78;93.52
47636;BME280;33364;50.766;15.338;2024-02-14T07:49:09;95344.09;;;0.84;93.78
47636;BME280;33364;50.766;15.338;2024-02-14T07:51:35;95349.13;;;0.79;93.10
47636;BME280;33364;50.766;15.338;2024-02-14T07:54:05;95348.78;;;0.76;92.76
47636;BME280;33364;50.766;15.338;2024-02-14T07:56:31;95347.41;;;0.73;92.86
47636;BME280;33364;50.766;15.338;2024-02-14T07:58:57;95353.97;;;0.58;92.45
47636;BME280;33364;50.766;15.338;2024-02-14T08:01:23;95356.56;;;0.76;93.41
47636;BME280;33364;50.766;15.338;2024-02-14T08:03:49;95353.13;;;0.82;93.07
47636;BME280;33364;50.766;15.338;2024-02-14T08:06:15;95351.63;;;0.93;92.80
47636;BME280;33364;50.766;15.338;2024-02-14T08:08:40;95354.97;;;1.00;92.25
47636;BME280;33364;50.766;15.338;2024-02-14T08:11:07;95358.72;;;1.04;91.79
47636;BME280;33364;50.766;15.338;2024-02-14T08:13:32;95361.44;;;1.09;91.85
47636;BME280;33364;50.766;15.338;2024-02-14T08:16:00;95348.88;;;1.24;91.90
47636;BME280;33364;50.766;15.338;2024-02-14T08:18:26;95346.69;;;1.57;92.16
47636;BME280;33364;50.766;15.338;2024-02-14T08:20:53;95351.38;;;1.67;90.92
47636;BME280;33364;50.766;15.338;2024-02-14T08:23:19;95340.25;;;2.01;90.81
47636;BME280;33364;50.766;15.338;2024-02-14T08:25:46;95342.47;;;2.16;89.25
47636;BME280;33364;50.766;15.338;2024-02-14T08:28:12;95344.06;;;2.29;89.00
47636;BME280;33364;50.766;15.338;2024-02-14T08:30:38;95349.97;;;2.24;88.16
47636;BME280;33364;50.766;15.338;2024-02-14T08:33:03;95346.59;;;2.35;88.61
47636;BME280;33364;50.766;15.338;2024-02-14T08:35:29;95345.22;;;2.44;88.29
47636;BME280;33364;50.766;15.338;2024-02-14T08:37:55;95354.88;;;2.55;87.38
47636;BME280;33364;50.766;15.338;2024-02-14T08:40:21;95354.44;;;2.70;87.36
47636;BME280;33364;50.766;15.338;2024-02-14T08:42:46;95354.78;;;2.74;86.47
47636;BME280;33364;50.766;15.338;2024-02-14T08:45:13;95354.31;;;2.77;85.47
47636;BME280;33364;50.766;15.338;2024-02-14T08:47:38;95352.72;;;2.76;84.48
47636;BME280;33364;50.766;15.338;2024-02-14T08:50:05;95359.66;;;2.70;83.63
47636;BME280;33364;50.766;15.338;2024-02-14T08:52:31;95361.78;;;2.96;83.44
47636;BME280;33364;50.766;15.338;2024-02-14T08:54:58;95350.94;;;3.11;83.15
47636;BME280;33364;50.766;15.338;2024-02-14T08:57:23;95347.09;;;3.54;82.37
47636;BME280;33364;50.766;15.338;2024-02-14T08:59:49;95356.16;;;3.51;81.25
47636;BME280;33364;50.766;15.338;2024-02-14T09:02:16;95352.00;;;3.78;81.99
47636;BME280;33364;50.766;15.338;2024-02-14T09:04:42;95351.59;;;3.70;80.68
47636;BME280;33364;50.766;15.338;2024-02-14T09:07:09;95357.34;;;3.44;80.46
47636;BME280;33364;50.766;15.338;2024-02-14T09:09:35;95352.66;;;3.86;80.95
47636;BME280;33364;50.766;15.338;2024-02-14T09:12:02;95341.19;;;4.32;79.96
47636;BME280;33364;50.766;15.338;2024-02-14T09:14:28;95339.28;;;4.77;78.78
47636;BME280;33364;50.766;15.338;2024-02-14T09:16:56;95347.25;;;4.87;76.55
47636;BME280;33364;50.766;15.338;2024-02-14T09:19:23;95332.72;;;5.57;77.61
47636;BME280;33364;50.766;15.338;2024-02-14T09:21:48;95340.47;;;5.90;74.69
47636;BME280;33364;50.766;15.338;2024-02-14T09:24:15;95340.13;;;6.35;73.67
47636;BME280;33364;50.766;15.338;2024-02-14T09:26:40;95340.16;;;6.40;72.07
47636;BME280;33364;50.766;15.338;2024-02-14T09:29:09;95330.81;;;6.49;72.39
47636;BME280;33364;50.766;15.338;2024-02-14T09:31:36;95329.19;;;6.43;72.19
47636;BME280;33364;50.766;15.338;2024-02-14T09:34:02;95331.28;;;6.46;71.39
47636;BME280;33364;50.766;15.338;2024-02-14T09:36:28;95327.81;;;6.09;73.32
47636;BME280;33364;50.766;15.338;2024-02-14T09:38:55;95331.28;;;6.46;73.33
47636;BME280;33364;50.766;15.338;2024-02-14T09:41:31;95335.44;;;6.37;71.42
47636;BME280;33364;50.766;15.338;2024-02-14T09:44:00;95330.78;;;5.90;73.37
47636;BME280;33364;50.766;15.338;2024-02-14T09:46:26;95332.56;;;5.63;74.23
47636;BME280;33364;50.766;15.338;2024-02-14T09:48:52;95334.25;;;5.31;75.32
47636;BME280;33364;50.766;15.338;2024-02-14T09:51:19;95330.78;;;5.25;76.50
47636;BME280;33364;50.766;15.338;2024-02-14T09:53:45;95332.09;;;5.06;78.15
47636;BME280;33364;50.766;15.338;2024-02-14T09:56:12;95335.78;;;4.88;76.68
47636;BME280;33364;50.766;15.338;2024-02-14T09:58:40;95327.13;;;4.71;78.22
47636;BME280;33364;50.766;15.338;2024-02-14T10:01:06;95330.31;;;4.73;79.28
47636;BME280;33364;50.766;15.338;2024-02-14T10:03:33;95330.25;;;4.68;79.25
47636;BME280;33364;50.766;15.338;2024-02-14T10:05:59;95336.13;;;4.42;80.01
47636;BME280;33364;50.766;15.338;2024-02-14T10:08:26;95325.97;;;4.62;80.26
47636;BME280;33364;50.766;15.338;2024-02-14T10:10:52;95335.72;;;4.50;80.66
47636;BME280;33364;50.766;15.338;2024-02-14T10:13:18;95324.72;;;4.48;80.00
47636;BME280;33364;50.766;15.338;2024-02-14T10:15:43;95316.16;;;4.52;79.86
47636;BME280;33364;50.766;15.338;2024-02-14T10:18:10;95322.88;;;4.48;80.83
47636;BME280;33364;50.766;15.338;2024-02-14T10:20:35;95313.59;;;4.57;81.34
47636;BME280;33364;50.766;15.338;2024-02-14T10:23:07;95325.66;;;4.42;81.24
47636;BME280;33364;50.766;15.338;2024-02-14T10:25:37;95326.16;;;4.39;81.86
47636;BME280;33364;50.766;15.338;2024-02-14T10:28:07;95325.88;;;4.40;82.35
47636;BME280;33364;50.766;15.338;2024-02-14T10:30:35;95325.97;;;4.45;82.14
47636;BME280;33364;50.766;15.338;2024-02-14T10:33:02;95323.03;;;4.42;82.65
47636;BME280;33364;50.766;15.338;2024-02-14T10:35:30;95321.94;;;4.38;82.71
47636;BME280;33364;50.766;15.338;2024-02-14T10:37:58;95323.41;;;4.34;82.63
47636;BME280;33364;50.766;15.338;2024-02-14T10:40:32;95319.00;;;4.17;83.03
47636;BME280;33364;50.766;15.338;2024-02-14T10:42:59;95313.44;;;4.14;83.39
47636;BME280;33364;50.766;15.338;2024-02-14T10:45:25;95310.41;;;4.05;83.51
47636;BME280;33364;50.766;15.338;2024-02-14T10:47:53;95309.78;;;4.15;84.19
47636;BME280;33364;50.766;15.338;2024-02-14T10:50:21;95324.66;;;3.98;84.27
47636;BME280;33364;50.766;15.338;2024-02-14T10:52:48;95320.38;;;4.08;84.31
47636;BME280;33364;50.766;15.338;2024-02-14T10:55:16;95320.69;;;3.95;84.36
47636;BME280;33364;50.766;15.338;2024-02-14T10:57:43;95309.50;;;3.83;84.71
47636;BME280;33364;50.766;15.338;2024-02-14T11:00:12;95310.06;;;3.85;84.79
47636;BME280;33364;50.766;15.338;2024-02-14T11:02:41;95311.59;;;3.98;84.80
47636;BME280;33364;50.766;15.338;2024-02-14T11:05:16;95314.53;;;4.18;84.35
47636;BME280;33364;50.766;15.338;2024-02-14T11:07:46;95308.06;;;4.20;84.55
47636;BME280;33364;50.766;15.338;2024-02-14T11:10:17;95298.09;;;4.17;84.09
47636;BME280;33364;50.766;15.338;2024-02-14T11:12:46;95293.19;;;4.21;83.90
47636;BME280;33364;50.766;15.338;2024-02-14T11:15:17;95274.72;;;4.11;83.35
47636;BME280;33364;50.766;15.338;2024-02-14T11:17:44;95283.19;;;4.35;83.55
47636;BME280;33364;50.766;15.338;2024-02-14T11:20:30;95281.28;;;4.47;83.15
47636;BME280;33364;50.766;15.338;2024-02-14T11:23:00;95282.59;;;4.66;82.84
47636;BME280;33364;50.766;15.338;2024-02-14T11:25:29;95278.13;;;4.83;82.24
47636;BME280;33364;50.766;15.338;2024-02-14T11:27:57;95279.09;;;4.77;81.54
47636;BME280;33364;50.766;15.338;2024-02-14T11:30:29;95278.22;;;4.88;81.41
47636;BME280;33364;50.766;15.338;2024-02-14T11:35:45;95275.19;;;4.96;81.90
47636;BME280;33364;50.766;15.338;2024-02-14T11:38:11;95280.44;;;4.96;81.34
47636;BME280;33364;50.766;15.338;2024-02-14T11:40:37;95288.00;;;4.98;81.76
47636;BME280;33364;50.766;15.338;2024-02-14T11:43:10;95290.19;;;4.84;82.65
47636;BME280;33364;50.766;15.338;2024-02-14T11:45:36;95276.47;;;4.77;83.11
47636;BME280;33364;50.766;15.338;2024-02-14T11:48:05;95280.47;;;4.63;83.28
47636;BME280;33364;50.766;15.338;2024-02-14T11:50:31;95285.88;;;4.40;83.88
47636;BME280;33364;50.766;15.338;2024-02-14T11:52:59;95282.53;;;4.44;84.52
47636;BME280;33364;50.766;15.338;2024-02-14T11:55:30;95296.75;;;4.32;85.38
47636;BME280;33364;50.766;15.338;2024-02-14T11:57:58;95296.09;;;4.24;86.11
47636;BME280;33364;50.766;15.338;2024-02-14T12:00:23;95292.78;;;4.12;87.02
47636;BME280;33364;50.766;15.338;2024-02-14T12:02:51;95282.69;;;4.04;88.08
47636;BME280;33364;50.766;15.338;2024-02-14T12:05:17;95282.22;;;4.07;88.75
47636;BME280;33364;50.766;15.338;2024-02-14T12:07:48;95279.34;;;3.92;88.99
47636;BME280;33364;50.766;15.338;2024-02-14T12:10:13;95284.19;;;3.83;88.81
47636;BME280;33364;50.766;15.338;2024-02-14T12:12:40;95283.53;;;3.76;89.72
47636;BME280;33364;50.766;15.338;2024-02-14T12:15:09;95284.41;;;3.82;90.50
47636;BME280;33364;50.766;15.338;2024-02-14T12:17:35;95278.22;;;3.71;90.91
47636;BME280;33364;50.766;15.338;2024-02-14T12:20:11;95278.56;;;3.75;91.39
47636;BME280;33364;50.766;15.338;2024-02-14T12:22:38;95278.28;;;3.76;91.89
47636;BME280;33364;50.766;15.338;2024-02-14T12:25:08;95279.22;;;3.70;92.20
47636;BME280;33364;50.766;15.338;2024-02-14T12:27:37;95275.19;;;3.63;92.27
47636;BME280;33364;50.766;15.338;2024-02-14T12:30:05;95269.75;;;3.64;92.86
47636;BME280;33364;50.766;15.338;2024-02-14T12:32:32;95275.72;;;3.65;92.95
47636;BME280;33364;50.766;15.338;2024-02-14T12:34:59;95272.66;;;3.68;92.82
47636;BME280;33364;50.766;15.338;2024-02-14T12:37:25;95274.25;;;3.69;93.14
47636;BME280;33364;50.766;15.338;2024-02-14T12:39:51;95278.47;;;3.70;93.27
47636;BME280;33364;50.766;15.338;2024-02-14T12:42:17;95277.75;;;3.74;93.25
47636;BME280;33364;50.766;15.338;2024-02-14T12:44:51;95273.34;;;3.75;92.69
47636;BME280;33364;50.766;15.338;2024-02-14T12:47:18;95270.47;;;3.76;92.74
47636;BME280;33364;50.766;15.338;2024-02-14T12:49:46;95270.31;;;3.83;92.49
47636;BME280;33364;50.766;15.338;2024-02-14T12:52:13;95263.28;;;3.83;92.58
47636;BME280;33364;50.766;15.338;2024-02-14T12:54:38;95259.31;;;3.81;92.20
47636;BME280;33364;50.766;15.338;2024-02-14T12:57:04;95259.09;;;3.99;92.04